sensor_id;sensor_type;location;lat;lon;timestamp;temperature;humidity
57466;DHT22;67033;44.984;20.068;2023-02-26T16:47:58;4.30;99.90
57466;DHT22;67033;44.984;20.068;2023-02-26T16:50:27;4.10;99.90
57466;DHT22;67033;44.984;20.068;2023-02-26T16:53:15;3.90;99.90
57466;DHT22;67033;44.984;20.068;2023-02-26T16:55:44;4.10;99.90
57466;DHT22;67033;44.984;20.068;2023-02-26T16:58:13;4.10;99.90
57466;DHT22;67033;44.984;20.068;2023-02-26T17:00:43;4.00;99.90
57466;DHT22;67033;44.984;20.068;2023-02-26T17:03:16;4.10;99.90
57466;DHT22;67033;44.984;20.068;2023-02-26T17:05:59;4.00;99.90
57466;DHT22;67033;44.984;20.068;2023-02-26T17:08:29;4.10;99.90
57466;DHT22;67033;44.984;20.068;2023-02-26T17:11:06;4.10;99.90
57466;DHT22;67033;44.984;20.068;2023-02-26T17:13:34;4.10;99.90
57466;DHT22;67033;44.984;20.068;2023-02-26T17:16:05;4.00;99.90
57466;DHT22;67033;44.984;20.068;2023-02-26T17:18:32;4.10;99.90
57466;DHT22;67033;44.984;20.068;2023-02-26T17:20:59;4.00;99.90
57466;DHT22;67033;44.984;20.068;2023-02-26T17:23:36;4.00;99.90
57466;DHT22;67033;44.984;20.068;2023-02-26T17:26:04;4.00;99.90
57466;DHT22;67033;44.984;20.068;2023-02-26T17:28:33;4.00;99.90
57466;DHT22;67033;44.984;20.068;2023-02-26T17:31:02;4.10;99.90
57466;DHT22;67033;44.984;20.068;2023-02-26T17:33:29;4.10;99.90
57466;DHT22;67033;44.984;20.068;2023-02-26T17:36:01;4.10;99.90
57466;DHT22;67033;44.984;20.068;2023-02-26T17:38:28;4.10;99.90
57466;DHT22;67033;44.984;20.068;2023-02-26T17:40:54;4.10;99.90
57466;DHT22;67033;44.984;20.068;2023-02-26T17:43:21;4.10;99.90
57466;DHT22;67033;44.984;20.068;2023-02-26T17:45:47;4.10;99.90
57466;DHT22;67033;44.984;20.068;2023-02-26T17:48:14;4.00;99.90
57466;DHT22;67033;44.984;20.068;2023-02-26T17:53:18;4.10;99.90
57466;DHT22;67033;44.984;20.068;2023-02-26T17:55:46;4.10;99.90
57466;DHT22;67033;44.984;20.068;2023-02-26T17:58:31;4.10;99.90
57466;DHT22;67033;44.984;20.068;2023-02-26T18:00:58;4.10;99.90
57466;DHT22;67033;44.984;20.068;2023-02-26T18:03:25;4.00;99.90
57466;DHT22;67033;44.984;20.068;2023-02-26T18:05:53;4.10;99.90
57466;DHT22;67033;44.984;20.068;2023-02-26T18:08:30;4.20;99.90
57466;DHT22;67033;44.984;20.068;2023-02-26T18:10:57;4.20;99.90
57466;DHT22;67033;44.984;20.068;2023-02-26T18:13:24;4.20;99.90
57466;DHT22;67033;44.984;20.068;2023-02-26T18:15:50;4.20;99.90
57466;DHT22;67033;44.984;20.068;2023-02-26T18:18:17;4.10;99.90
57466;DHT22;67033;44.984;20.068;2023-02-26T18:20:44;4.20;99.90
57466;DHT22;67033;44.984;20.068;2023-02-26T18:23:11;4.20;99.90
57466;DHT22;67033;44.984;20.068;2023-02-26T18:25:39;4.20;99.90
57466;DHT22;67033;44.984;20.068;2023-02-26T18:28:08;4.20;99.90
57466;DHT22;67033;44.984;20.068;2023-02-26T18:30:35;4.20;99.90
57466;DHT22;67033;44.984;20.068;2023-02-26T18:33:04;4.30;99.90
57466;DHT22;67033;44.984;20.068;2023-02-26T18:35:30;4.30;99.90
57466;DHT22;67033;44.984;20.068;2023-02-26T18:37:57;4.30;99.90
57466;DHT22;67033;44.984;20.068;2023-02-26T18:40:24;4.30;99.90
57466;DHT22;67033;44.984;20.068;2023-02-26T18:42:51;4.40;99.90
57466;DHT22;67033;44.984;20.068;2023-02-26T18:45:18;4.40;99.90
57466;DHT22;67033;44.984;20.068;2023-02-26T18:47:45;4.40;99.90
57466;DHT22;67033;44.984;20.068;2023-02-26T18:50:16;4.50;99.90
57466;DHT22;67033;44.984;20.068;2023-02-26T18:52:42;4.40;99.90
57466;DHT22;67033;44.984;20.068;2023-02-26T18:55:10;4.40;99.90
57466;DHT22;67033;44.984;20.068;2023-02-26T18:57:36;4.40;99.90
57466;DHT22;67033;44.984;20.068;2023-02-26T19:00:05;4.40;99.90
57466;DHT22;67033;44.984;20.068;2023-02-26T19:02:32;4.40;99.90
57466;DHT22;67033;44.984;20.068;2023-02-26T19:04:59;4.40;99.90
57466;DHT22;67033;44.984;20.068;2023-02-26T19:07:24;4.40;99.90
57466;DHT22;67033;44.984;20.068;2023-02-26T19:09:51;4.40;99.90
57466;DHT22;67033;44.984;20.068;2023-02-26T19:12:17;4.30;99.90
57466;DHT22;67033;44.984;20.068;2023-02-26T19:14:45;4.20;99.90
57466;DHT22;67033;44.984;20.068;2023-02-26T19:17:11;4.20;99.90
57466;DHT22;67033;44.984;20.068;2023-02-26T19:19:37;4.20;99.90
57466;DHT22;67033;44.984;20.068;2023-02-26T19:22:05;4.30;99.90
57466;DHT22;67033;44.984;20.068;2023-02-26T19:24:32;4.20;99.90
57466;DHT22;67033;44.984;20.068;2023-02-26T19:26:58;4.20;99.90
57466;DHT22;67033;44.984;20.068;2023-02-26T19:29:23;4.20;99.90
57466;DHT22;67033;44.984;20.068;2023-02-26T19:31:49;4.30;99.90
57466;DHT22;67033;44.984;20.068;2023-02-26T19:34:15;4.20;99.90
57466;DHT22;67033;44.984;20.068;2023-02-26T19:36:41;4.20;99.90
57466;DHT22;67033;44.984;20.068;2023-02-26T19:39:12;4.20;99.90
57466;DHT22;67033;44.984;20.068;2023-02-26T19:41:38;4.20;99.90
57466;DHT22;67033;44.984;20.068;2023-02-26T19:44:04;4.20;99.90
57466;DHT22;67033;44.984;20.068;2023-02-26T19:46:30;4.20;99.90
57466;DHT22;67033;44.984;20.068;2023-02-26T19:48:56;4.10;99.90
57466;DHT22;67033;44.984;20.068;2023-02-26T19:51:22;4.20;99.90
57466;DHT22;67033;44.984;20.068;2023-02-26T19:53:48;4.20;99.90
57466;DHT22;67033;44.984;20.068;2023-02-26T19:56:13;4.20;99.90
57466;DHT22;67033;44.984;20.068;2023-02-26T19:58:40;4.20;99.90
57466;DHT22;67033;44.984;20.068;2023-02-26T20:01:07;4.20;99.90
57466;DHT22;67033;44.984;20.068;2023-02-26T20:03:33;4.30;99.90
57466;DHT22;67033;44.984;20.068;2023-02-26T20:05:59;4.20;99.90
57466;DHT22;67033;44.984;20.068;2023-02-26T20:08:26;4.20;99.90
57466;DHT22;67033;44.984;20.068;2023-02-26T20:10:56;4.20;99.90
57466;DHT22;67033;44.984;20.068;2023-02-26T20:13:24;4.20;99.90
57466;DHT22;67033;44.984;20.068;2023-02-26T20:15:54;4.20;99.90
57466;DHT22;67033;44.984;20.068;2023-02-26T20:18:20;4.10;99.90
57466;DHT22;67033;44.984;20.068;2023-02-26T20:20:46;4.20;99.90
57466;DHT22;67033;44.984;20.068;2023-02-26T20:23:12;4.10;99.90
57466;DHT22;67033;44.984;20.068;2023-02-26T20:25:38;4.10;99.90
57466;DHT22;67033;44.984;20.068;2023-02-26T20:28:04;4.20;99.90
57466;DHT22;67033;44.984;20.068;2023-02-26T20:30:29;4.20;99.90
57466;DHT22;67033;44.984;20.068;2023-02-26T20:32:57;4.20;99.90
57466;DHT22;67033;44.984;20.068;2023-02-26T20:35:22;4.20;99.90
57466;DHT22;67033;44.984;20.068;2023-02-26T20:37:49;4.20;99.90
57466;DHT22;67033;44.984;20.068;2023-02-26T20:40:15;4.20;99.90
57466;DHT22;67033;44.984;20.068;2023-02-26T20:42:41;4.10;99.90
57466;DHT22;67033;44.984;20.068;2023-02-26T20:45:07;4.10;99.90
57466;DHT22;67033;44.984;20.068;2023-02-26T20:47:33;4.10;99.90
57466;DHT22;67033;44.984;20.068;2023-02-26T20:49:59;4.10;99.90
57466;DHT22;67033;44.984;20.068;2023-02-26T20:52:25;4.10;99.90
57466;DHT22;67033;44.984;20.068;2023-02-26T20:54:51;4.10;99.90
57466;DHT22;67033;44.984;20.068;2023-02-26T20:57:17;4.00;99.90
57466;DHT22;67033;44.984;20.068;2023-02-26T20:59:43;4.10;99.90
57466;DHT22;67033;44.984;20.068;2023-02-26T21:02:12;4.00;99.90
57466;DHT22;67033;44.984;20.068;2023-02-26T21:04:40;4.00;99.90
57466;DHT22;67033;44.984;20.068;2023-02-26T21:07:06;4.00;99.90
57466;DHT22;67033;44.984;20.068;2023-02-26T21:09:42;4.00;99.90
57466;DHT22;67033;44.984;20.068;2023-02-26T21:12:09;3.90;99.90
57466;DHT22;67033;44.984;20.068;2023-02-26T21:14:35;3.90;99.90
57466;DHT22;67033;44.984;20.068;2023-02-26T21:17:02;3.80;99.90
57466;DHT22;67033;44.984;20.068;2023-02-26T21:19:29;3.80;99.90
57466;DHT22;67033;44.984;20.068;2023-02-26T21:21:55;3.90;99.90
57466;DHT22;67033;44.984;20.068;2023-02-26T21:24:21;3.90;99.90
57466;DHT22;67033;44.984;20.068;2023-02-26T21:26:47;4.00;99.90
57466;DHT22;67033;44.984;20.068;2023-02-26T21:29:13;4.00;99.90
57466;DHT22;67033;44.984;20.068;2023-02-26T21:31:39;4.00;99.90
57466;DHT22;67033;44.984;20.068;2023-02-26T21:34:05;3.90;99.90
57466;DHT22;67033;44.984;20.068;2023-02-26T21:36:31;3.90;99.90
57466;DHT22;67033;44.984;20.068;2023-02-26T21:38:57;3.80;99.90
57466;DHT22;67033;44.984;20.068;2023-02-26T21:41:23;3.80;99.90
57466;DHT22;67033;44.984;20.068;2023-02-26T21:43:48;3.70;99.90
57466;DHT22;67033;44.984;20.068;2023-02-26T21:46:14;3.80;99.90
57466;DHT22;67033;44.984;20.068;2023-02-26T21:48:40;3.80;99.90
57466;DHT22;67033;44.984;20.068;2023-02-26T21:51:06;3.80;99.90
57466;DHT22;67033;44.984;20.068;2023-02-26T21:53:32;3.70;99.90
57466;DHT22;67033;44.984;20.068;2023-02-26T21:55:57;3.70;99.90
57466;DHT22;67033;44.984;20.068;2023-02-26T21:58:23;3.60;99.90
57466;DHT22;67033;44.984;20.068;2023-02-26T22:00:50;3.60;99.90
57466;DHT22;67033;44.984;20.068;2023-02-26T22:03:16;3.60;99.90
57466;DHT22;67033;44.984;20.068;2023-02-26T22:17:53;3.50;99.90
57466;DHT22;67033;44.984;20.068;2023-02-26T22:20:19;3.30;99.90
57466;DHT22;67033;44.984;20.068;2023-02-26T22:22:45;3.20;99.90
57466;DHT22;67033;44.984;20.068;2023-02-26T22:25:11;3.10;99.90
57466;DHT22;67033;44.984;20.068;2023-02-26T22:27:37;3.10;99.90
57466;DHT22;67033;44.984;20.068;2023-02-26T22:30:05;3.20;99.90
57466;DHT22;67033;44.984;20.068;2023-02-26T22:32:31;3.00;99.90
